createdAt,value
2023-05-09T00:00:23.324Z,76.30
2023-05-09T00:02:52.551Z,76.60
2023-05-09T00:05:35.292Z,76.50
2023-05-09T00:08:04.441Z,76.30
2023-05-09T00:10:33.544Z,76.20
2023-05-09T00:13:02.625Z,76.10
2023-05-09T00:15:34.470Z,76.00
2023-05-09T00:18:25.260Z,75.90
2023-05-09T00:20:56.613Z,76.30
2023-05-09T00:23:25.984Z,75.90
2023-05-09T00:25:55.003Z,75.80
2023-05-09T00:28:24.073Z,75.70
2023-05-09T00:30:55.956Z,75.80
2023-05-09T00:33:28.107Z,75.90
2023-05-09T00:35:57.260Z,75.60
2023-05-09T00:38:26.488Z,75.70
2023-05-09T00:40:55.485Z,75.80
2023-05-09T00:43:24.417Z,75.70
2023-05-09T00:45:58.916Z,75.70
2023-05-09T00:48:28.616Z,75.80
2023-05-09T00:51:00.719Z,75.80
2023-05-09T00:53:30.039Z,75.80
2023-05-09T00:55:59.836Z,75.90
2023-05-09T00:58:29.748Z,76.00
2023-05-09T01:01:00.855Z,76.10
2023-05-09T01:03:31.549Z,76.70
2023-05-09T01:06:11.371Z,75.80
2023-05-09T01:08:59.038Z,75.60
2023-05-09T01:11:48.104Z,75.40
2023-05-09T01:14:26.898Z,75.20
2023-05-09T01:17:36.875Z,74.80
2023-05-09T01:20:23.767Z,74.50
2023-05-09T01:23:13.224Z,74.20
2023-05-09T01:26:00.473Z,73.90
2023-05-09T01:29:02.619Z,73.40
2023-05-09T01:31:33.421Z,73.20
2023-05-09T01:34:06.496Z,72.80
2023-05-09T01:36:38.105Z,72.50
2023-05-09T01:39:08.890Z,72.20
2023-05-09T01:41:42.873Z,72.10
2023-05-09T01:44:15.354Z,71.80
2023-05-09T01:46:45.608Z,71.20
2023-05-09T01:49:17.112Z,71.50
2023-05-09T01:51:48.400Z,71.50
2023-05-09T01:54:18.628Z,71.20
2023-05-09T01:56:48.870Z,70.90
2023-05-09T01:59:19.459Z,70.90
2023-05-09T02:01:49.865Z,70.50
2023-05-09T02:04:20.808Z,70.50
2023-05-09T02:06:53.005Z,70.20
2023-05-09T02:09:23.187Z,70.20
2023-05-09T02:11:52.284Z,69.80
2023-05-09T02:14:21.669Z,70.00
2023-05-09T02:16:50.945Z,69.80
2023-05-09T02:19:20.313Z,69.60
2023-05-09T02:21:49.627Z,69.60
2023-05-09T02:24:18.966Z,69.50
2023-05-09T02:26:48.408Z,69.60
2023-05-09T02:29:21.685Z,69.50
2023-05-09T02:31:53.312Z,69.50
2023-05-09T02:34:23.637Z,69.30
2023-05-09T02:36:52.734Z,70.10
2023-05-09T02:39:31.326Z,69.50
2023-05-09T02:42:12.892Z,69.30
2023-05-09T02:44:42.285Z,69.00
2023-05-09T02:47:11.814Z,68.80
2023-05-09T02:49:41.089Z,68.70
2023-05-09T02:52:10.545Z,68.20
2023-05-09T02:54:40.145Z,68.20
2023-05-09T02:57:09.260Z,68.00
2023-05-09T02:59:38.252Z,67.80
2023-05-09T03:02:07.620Z,67.80
2023-05-09T03:04:37.151Z,67.50
2023-05-09T03:07:06.697Z,67.20
2023-05-09T03:09:35.914Z,66.80
2023-05-09T03:12:05.119Z,66.30
2023-05-09T03:14:34.192Z,66.10
2023-05-09T03:17:03.444Z,66.10
2023-05-09T03:19:32.584Z,66.10
2023-05-09T03:22:01.687Z,65.00
2023-05-09T03:24:31.262Z,64.80
2023-05-09T03:27:00.519Z,65.30
2023-05-09T03:29:29.741Z,65.10
2023-05-09T03:31:58.695Z,64.80
2023-05-09T03:34:27.840Z,65.20
2023-05-09T03:36:56.733Z,64.80
2023-05-09T03:39:25.760Z,65.10
2023-05-09T03:41:54.762Z,64.70
2023-05-09T03:44:23.804Z,64.40
2023-05-09T03:46:52.910Z,64.40
2023-05-09T03:49:21.945Z,64.10
2023-05-09T03:51:51.123Z,64.00
2023-05-09T03:54:20.128Z,63.70
2023-05-09T03:56:49.169Z,63.00
2023-05-09T03:59:18.505Z,62.90
2023-05-09T04:01:47.650Z,62.90
2023-05-09T04:04:17.330Z,62.40
2023-05-09T04:06:46.386Z,62.20
2023-05-09T04:09:16.076Z,62.10
2023-05-09T04:11:45.464Z,61.90
2023-05-09T04:14:14.453Z,62.00
2023-05-09T04:16:44.802Z,62.10
2023-05-09T04:19:13.924Z,62.00
2023-05-09T04:21:46.668Z,61.60
2023-05-09T04:24:15.833Z,61.30
2023-05-09T04:26:45.082Z,61.20
2023-05-09T04:29:14.039Z,61.20
2023-05-09T04:31:43.242Z,60.10
2023-05-09T04:34:13.032Z,60.50
2023-05-09T04:36:42.299Z,60.10
2023-05-09T04:39:12.030Z,60.10
2023-05-09T04:41:41.001Z,60.10
2023-05-09T04:44:10.216Z,60.00
2023-05-09T04:46:39.341Z,60.00
2023-05-09T04:49:08.539Z,59.80
2023-05-09T04:51:40.700Z,60.20
2023-05-09T04:54:15.640Z,59.90
2023-05-09T04:56:44.694Z,59.10
2023-05-09T04:59:13.733Z,59.60
2023-05-09T05:01:42.713Z,58.70
2023-05-09T05:04:11.946Z,58.80
2023-05-09T05:06:40.981Z,58.50
2023-05-09T05:09:11.269Z,58.70
2023-05-09T05:11:47.376Z,58.60
2023-05-09T05:14:22.374Z,59.00
2023-05-09T05:16:51.463Z,59.00
2023-05-09T05:19:20.540Z,58.50
2023-05-09T05:21:49.499Z,59.40
2023-05-09T05:24:18.468Z,59.00
2023-05-09T05:26:47.489Z,58.70
2023-05-09T05:29:16.582Z,57.10
2023-05-09T05:31:45.684Z,57.40
2023-05-09T05:34:14.818Z,58.60
2023-05-09T05:36:43.887Z,59.60
2023-05-09T05:39:12.868Z,58.80
2023-05-09T05:41:42.092Z,58.80
2023-05-09T05:44:11.152Z,60.00
2023-05-09T05:46:40.181Z,59.40
2023-05-09T05:49:09.202Z,59.00
2023-05-09T05:51:38.167Z,58.30
2023-05-09T05:54:07.245Z,58.60
2023-05-09T05:56:36.299Z,58.40
2023-05-09T05:59:05.267Z,58.40
2023-05-09T06:01:34.439Z,58.50
2023-05-09T06:04:03.438Z,58.70
2023-05-09T06:06:32.543Z,58.50
2023-05-09T06:09:01.439Z,58.80
2023-05-09T06:11:30.443Z,58.70
2023-05-09T06:13:59.406Z,58.80
2023-05-09T06:16:28.683Z,58.40
2023-05-09T06:18:57.798Z,58.30
2023-05-09T06:21:27.508Z,58.80
2023-05-09T06:26:28.292Z,58.80
2023-05-09T06:28:57.629Z,58.90
2023-05-09T06:31:26.756Z,59.30
2023-05-09T06:33:55.722Z,59.30
2023-05-09T06:36:24.730Z,59.40
2023-05-09T06:38:53.802Z,59.60
2023-05-09T06:41:23.050Z,59.70
2023-05-09T06:43:51.977Z,59.50
2023-05-09T06:46:21.215Z,59.60
2023-05-09T06:48:50.361Z,59.40
2023-05-09T06:51:19.462Z,59.30
2023-05-09T06:53:48.494Z,59.20
2023-05-09T06:56:19.976Z,59.90
2023-05-09T06:58:49.413Z,59.30
2023-05-09T07:01:18.940Z,59.10
2023-05-09T07:03:48.736Z,58.90
2023-05-09T07:06:17.803Z,58.60
2023-05-09T07:08:47.129Z,58.30
2023-05-09T07:11:16.148Z,58.30
2023-05-09T07:13:45.142Z,58.00
2023-05-09T07:16:14.185Z,57.90
2023-05-09T07:18:43.224Z,57.70
2023-05-09T07:21:12.635Z,57.70
2023-05-09T07:23:42.043Z,57.50
2023-05-09T07:26:11.101Z,57.10
2023-05-09T07:28:40.398Z,57.20
2023-05-09T07:31:10.549Z,57.10
2023-05-09T07:33:39.856Z,57.10
2023-05-09T07:36:09.050Z,57.00
2023-05-09T07:38:38.486Z,56.90
2023-05-09T07:41:07.982Z,56.90
2023-05-09T07:43:37.314Z,57.10
2023-05-09T07:46:06.430Z,56.50
2023-05-09T07:48:35.500Z,56.70
2023-05-09T07:51:04.481Z,56.60
2023-05-09T07:53:35.834Z,56.50
2023-05-09T07:56:04.831Z,56.50
2023-05-09T07:58:35.492Z,56.30
2023-05-09T08:01:04.451Z,56.20
2023-05-09T08:03:33.629Z,56.70
2023-05-09T08:06:02.705Z,56.90
2023-05-09T08:08:31.741Z,57.00
2023-05-09T08:11:00.864Z,56.50
2023-05-09T08:13:29.900Z,56.40
2023-05-09T08:15:59.462Z,56.50
2023-05-09T08:18:28.568Z,56.80
2023-05-09T08:20:57.516Z,56.70
2023-05-09T08:23:27.278Z,57.00
2023-05-09T08:25:56.656Z,56.70
2023-05-09T08:28:25.647Z,56.90
2023-05-09T08:30:54.798Z,57.10
2023-05-09T08:33:23.824Z,56.80
2023-05-09T08:35:54.409Z,56.80
2023-05-09T08:38:23.725Z,56.70
2023-05-09T08:40:52.790Z,57.30
2023-05-09T08:43:23.575Z,57.70
2023-05-09T08:46:00.319Z,58.00
2023-05-09T08:48:31.406Z,58.20
2023-05-09T08:51:01.154Z,58.50
2023-05-09T08:53:30.371Z,58.70
2023-05-09T08:56:02.841Z,59.00
2023-05-09T08:58:33.186Z,59.10
2023-05-09T09:01:05.824Z,59.40
2023-05-09T09:03:35.044Z,59.70
2023-05-09T09:06:04.334Z,60.30
2023-05-09T09:08:35.176Z,60.50
2023-05-09T09:11:04.412Z,60.90
2023-05-09T09:13:35.248Z,61.10
2023-05-09T09:16:04.462Z,61.30
2023-05-09T09:18:35.381Z,61.40
2023-05-09T09:21:11.116Z,61.60
2023-05-09T09:23:44.191Z,61.70
2023-05-09T09:26:13.250Z,61.50
2023-05-09T09:28:43.240Z,61.50
2023-05-09T09:31:48.100Z,61.70
2023-05-09T09:34:24.145Z,62.00
2023-05-09T09:36:53.396Z,61.90
2023-05-09T09:39:23.273Z,61.80
2023-05-09T09:41:52.438Z,62.70
2023-05-09T09:44:23.204Z,62.60
2023-05-09T09:46:57.083Z,62.80
2023-05-09T09:49:28.025Z,63.10
2023-05-09T09:51:59.511Z,63.20
2023-05-09T09:54:29.642Z,63.90
2023-05-09T09:56:58.752Z,64.00
2023-05-09T09:59:28.633Z,64.00
2023-05-09T10:02:04.923Z,64.00
2023-05-09T10:04:37.987Z,63.90
2023-05-09T10:07:15.161Z,63.90
2023-05-09T10:09:45.058Z,64.20
2023-05-09T10:12:16.609Z,63.90
2023-05-09T10:14:46.385Z,63.80
2023-05-09T10:17:19.587Z,63.90
2023-05-09T10:19:51.952Z,63.90
2023-05-09T10:22:24.323Z,64.10
2023-05-09T10:24:58.458Z,63.80
2023-05-09T10:27:30.746Z,63.70
2023-05-09T10:30:06.120Z,63.70
2023-05-09T10:32:56.198Z,63.90
2023-05-09T10:35:30.683Z,64.20
2023-05-09T10:38:00.024Z,63.60
2023-05-09T10:40:30.570Z,63.60
2023-05-09T10:42:59.530Z,63.60
2023-05-09T10:45:29.535Z,63.70
2023-05-09T10:47:59.375Z,63.60
2023-05-09T10:50:28.881Z,63.80
2023-05-09T10:53:20.100Z,63.60
2023-05-09T10:55:49.137Z,64.00
2023-05-09T10:58:38.682Z,64.00
2023-05-09T11:01:08.133Z,64.30
2023-05-09T11:03:56.765Z,64.00
2023-05-09T11:06:46.761Z,64.30
2023-05-09T11:09:42.506Z,64.60
2023-05-09T11:12:16.759Z,64.50
2023-05-09T11:14:47.049Z,64.30
2023-05-09T11:17:25.916Z,64.10
2023-05-09T11:19:55.115Z,64.30
2023-05-09T11:22:43.506Z,64.30
2023-05-09T11:25:18.117Z,64.50
2023-05-09T11:27:53.531Z,64.20
2023-05-09T11:30:22.887Z,64.30
2023-05-09T11:33:00.135Z,64.50
2023-05-09T11:35:29.201Z,64.30
2023-05-09T11:38:08.348Z,64.30
2023-05-09T11:40:38.526Z,64.70
2023-05-09T11:43:10.497Z,64.50
2023-05-09T11:45:41.862Z,64.60
2023-05-09T11:48:11.950Z,64.60
2023-05-09T11:50:42.380Z,64.80
2023-05-09T11:53:13.673Z,65.00
2023-05-09T11:55:43.352Z,65.20
2023-05-09T11:58:12.491Z,65.20
2023-05-09T12:00:47.147Z,65.10
2023-05-09T12:03:16.490Z,65.30
2023-05-09T12:05:45.808Z,65.70
2023-05-09T12:08:16.638Z,66.30
2023-05-09T12:10:45.825Z,65.60
2023-05-09T12:13:14.835Z,65.50
2023-05-09T12:15:46.819Z,65.80
2023-05-09T12:18:18.325Z,65.90
2023-05-09T12:20:52.258Z,66.00
2023-05-09T12:23:21.704Z,66.30
2023-05-09T12:26:00.054Z,66.40
2023-05-09T12:28:29.886Z,66.20
2023-05-09T12:30:59.586Z,66.40
2023-05-09T12:33:28.959Z,66.50
2023-05-09T12:36:15.407Z,66.50
2023-05-09T12:38:55.456Z,66.60
2023-05-09T12:43:57.276Z,67.90
2023-05-09T12:46:26.808Z,67.80
2023-05-09T12:48:56.322Z,66.90
2023-05-09T12:51:25.643Z,67.60
2023-05-09T12:53:55.292Z,68.00
2023-05-09T12:56:27.044Z,68.50
2023-05-09T12:58:57.262Z,69.90
2023-05-09T13:01:30.149Z,70.60
2023-05-09T13:04:07.716Z,72.70
2023-05-09T13:06:37.482Z,73.40
2023-05-09T13:09:07.419Z,72.10
2023-05-09T13:11:38.929Z,72.30
2023-05-09T13:14:08.037Z,73.40
2023-05-09T13:16:37.298Z,76.30
2023-05-09T13:19:06.632Z,78.40
2023-05-09T13:21:37.237Z,78.70
2023-05-09T13:24:07.249Z,79.40
2023-05-09T13:26:36.390Z,81.00
2023-05-09T13:29:05.444Z,83.60
2023-05-09T13:31:34.515Z,86.80
2023-05-09T13:34:03.493Z,88.80
2023-05-09T13:36:33.737Z,88.90
2023-05-09T13:39:02.755Z,90.80
2023-05-09T13:41:33.322Z,91.40
2023-05-09T13:44:02.456Z,93.80
2023-05-09T13:46:31.560Z,94.30
2023-05-09T13:49:00.640Z,97.50
2023-05-09T13:51:30.279Z,99.90
2023-05-09T13:53:59.237Z,99.70
2023-05-09T13:56:28.228Z,99.90
2023-05-09T13:58:57.179Z,98.00
2023-05-09T14:01:26.336Z,96.50
2023-05-09T14:03:55.577Z,95.10
2023-05-09T14:06:24.745Z,95.30
2023-05-09T14:08:54.249Z,96.70
2023-05-09T14:11:23.211Z,97.70
2023-05-09T14:13:53.745Z,94.80
2023-05-09T14:16:23.296Z,93.80
2023-05-09T14:18:52.285Z,93.40
2023-05-09T14:21:21.247Z,93.20
2023-05-09T14:23:50.870Z,93.10
2023-05-09T14:26:20.422Z,93.70
2023-05-09T14:28:49.665Z,95.80
2023-05-09T14:31:18.792Z,95.00
2023-05-09T14:33:48.102Z,94.40
2023-05-09T14:36:17.103Z,97.40
2023-05-09T14:38:48.015Z,97.90
2023-05-09T14:41:17.616Z,98.20
2023-05-09T14:43:47.809Z,93.80
2023-05-09T14:46:17.199Z,90.00
2023-05-09T14:48:46.192Z,89.10
2023-05-09T14:51:15.508Z,87.90
2023-05-09T14:53:44.739Z,88.50
2023-05-09T14:56:14.386Z,90.30
2023-05-09T14:58:43.487Z,90.50
2023-05-09T15:01:12.538Z,90.30
2023-05-09T15:03:42.024Z,90.40
2023-05-09T15:06:11.808Z,90.00
2023-05-09T15:08:42.472Z,90.00
2023-05-09T15:11:11.464Z,89.90
2023-05-09T15:13:40.426Z,90.60
2023-05-09T15:16:09.993Z,90.20
2023-05-09T15:18:43.850Z,90.90
2023-05-09T15:21:15.499Z,90.20
2023-05-09T15:23:44.706Z,90.80
2023-05-09T15:26:13.892Z,91.80
2023-05-09T15:28:42.939Z,91.80
2023-05-09T15:31:11.938Z,92.50
2023-05-09T15:33:40.873Z,91.30
2023-05-09T15:36:10.999Z,91.20
2023-05-09T15:38:40.054Z,91.10
2023-05-09T15:41:09.895Z,90.40
2023-05-09T15:43:38.972Z,91.10
2023-05-09T15:46:08.564Z,91.40
2023-05-09T15:48:37.698Z,91.20
2023-05-09T15:51:06.920Z,90.90
2023-05-09T15:53:35.894Z,91.40
2023-05-09T15:56:05.619Z,90.90
2023-05-09T15:58:35.390Z,91.00
2023-05-09T16:01:09.073Z,90.70
2023-05-09T16:03:38.753Z,90.60
2023-05-09T16:06:08.464Z,90.90
2023-05-09T16:08:37.450Z,90.80
2023-05-09T16:11:06.733Z,90.40
2023-05-09T16:13:36.299Z,90.00
2023-05-09T16:16:05.840Z,90.60
2023-05-09T16:18:35.023Z,90.80
2023-05-09T16:21:04.045Z,90.90
2023-05-09T16:23:33.026Z,91.00
2023-05-09T16:26:02.115Z,91.10
2023-05-09T16:28:31.388Z,90.70
2023-05-09T16:31:01.921Z,90.80
2023-05-09T16:33:31.053Z,91.00
2023-05-09T16:36:00.349Z,91.40
2023-05-09T16:38:29.636Z,91.30
2023-05-09T16:40:58.609Z,90.80
2023-05-09T16:43:27.606Z,90.70
2023-05-09T16:45:56.648Z,90.60
2023-05-09T16:48:25.676Z,90.70
2023-05-09T16:50:54.872Z,90.50
2023-05-09T16:53:25.418Z,90.30
2023-05-09T16:55:56.186Z,91.60
2023-05-09T16:58:26.404Z,90.80
2023-05-09T17:00:56.450Z,91.50
2023-05-09T17:03:25.542Z,90.60
2023-05-09T17:05:54.596Z,90.30
2023-05-09T17:08:24.769Z,89.60
2023-05-09T17:10:53.816Z,90.70
2023-05-09T17:13:22.971Z,91.20
2023-05-09T17:15:53.771Z,92.40
2023-05-09T17:18:36.006Z,92.90
2023-05-09T17:21:07.850Z,91.50
2023-05-09T17:23:36.934Z,92.10
2023-05-09T17:26:06.262Z,93.30
2023-05-09T17:28:35.346Z,93.00
2023-05-09T17:31:04.607Z,91.80
2023-05-09T17:33:33.722Z,93.70
2023-05-09T17:36:02.743Z,96.00
2023-05-09T17:38:31.923Z,94.10
2023-05-09T17:41:01.204Z,94.80
2023-05-09T17:43:30.270Z,94.30
2023-05-09T17:45:59.875Z,94.60
2023-05-09T17:48:29.019Z,95.50
2023-05-09T17:50:58.013Z,95.90
2023-05-09T17:53:27.700Z,93.70
2023-05-09T17:55:56.838Z,95.80
2023-05-09T17:58:25.923Z,93.80
2023-05-09T18:00:56.620Z,95.60
2023-05-09T18:03:26.215Z,93.90
2023-05-09T18:05:55.565Z,91.90
2023-05-09T18:08:24.906Z,92.50
2023-05-09T18:10:57.486Z,93.80
2023-05-09T18:13:26.979Z,93.40
2023-05-09T18:16:00.828Z,93.40
2023-05-09T18:18:30.288Z,92.70
2023-05-09T18:21:02.335Z,95.10
2023-05-09T18:23:31.645Z,93.60
2023-05-09T18:26:00.728Z,93.80
2023-05-09T18:28:29.980Z,94.30
2023-05-09T18:31:02.793Z,93.80
2023-05-09T18:33:32.414Z,93.70
2023-05-09T18:36:01.688Z,93.80
2023-05-09T18:38:31.881Z,92.90
2023-05-09T18:41:00.930Z,92.80
2023-05-09T18:43:31.016Z,92.50
2023-05-09T18:46:00.012Z,92.90
2023-05-09T18:48:29.029Z,92.10
2023-05-09T18:50:58.208Z,91.90
2023-05-09T18:53:28.124Z,91.40
2023-05-09T18:56:00.068Z,91.40
2023-05-09T18:58:29.116Z,91.40
2023-05-09T19:00:58.112Z,90.80
2023-05-09T19:03:28.365Z,90.80
2023-05-09T19:05:57.949Z,90.60
2023-05-09T19:08:27.465Z,90.40
2023-05-09T19:10:56.518Z,90.30
2023-05-09T19:13:25.606Z,90.30
2023-05-09T19:15:54.958Z,90.20
2023-05-09T19:18:24.242Z,90.10
2023-05-09T19:20:53.194Z,90.00
2023-05-09T19:23:22.388Z,90.00
2023-05-09T19:25:54.338Z,90.10
2023-05-09T19:28:24.238Z,90.10
2023-05-09T19:30:53.653Z,89.90
2023-05-09T19:33:22.841Z,89.60
2023-05-09T19:35:51.944Z,89.50
2023-05-09T19:38:20.980Z,89.70
2023-05-09T19:40:50.085Z,89.80
2023-05-09T19:43:19.160Z,89.80
2023-05-09T19:45:48.216Z,89.80
2023-05-09T19:48:17.228Z,90.00
2023-05-09T19:50:47.269Z,89.80
2023-05-09T19:53:16.466Z,89.70
2023-05-09T19:55:48.064Z,89.80
2023-05-09T19:58:18.098Z,89.90
2023-05-09T20:00:47.402Z,89.80
2023-05-09T20:03:16.708Z,89.60
2023-05-09T20:05:45.950Z,89.70
2023-05-09T20:08:15.132Z,89.60
2023-05-09T20:10:44.645Z,89.50
2023-05-09T20:13:15.152Z,89.60
2023-05-09T20:15:44.336Z,89.30
2023-05-09T20:18:13.932Z,89.30
2023-05-09T20:20:43.584Z,89.30
2023-05-09T20:23:12.824Z,89.40
2023-05-09T20:25:42.023Z,89.20
2023-05-09T20:28:13.455Z,89.20
2023-05-09T20:30:42.569Z,89.40
2023-05-09T20:33:11.736Z,89.00
2023-05-09T20:35:41.261Z,88.60
2023-05-09T20:38:10.618Z,89.00
2023-05-09T20:40:40.558Z,89.00
2023-05-09T20:43:09.891Z,89.00
2023-05-09T20:45:39.093Z,89.00
2023-05-09T20:48:09.243Z,89.20
2023-05-09T20:50:38.354Z,89.30
2023-05-09T20:53:07.434Z,89.00
2023-05-09T20:55:36.964Z,89.20
2023-05-09T20:58:06.050Z,89.30
2023-05-09T21:00:35.678Z,89.50
2023-05-09T21:03:05.161Z,89.90
2023-05-09T21:05:34.506Z,89.40
2023-05-09T21:08:03.570Z,88.50
2023-05-09T21:10:32.693Z,88.50
2023-05-09T21:13:01.966Z,89.20
2023-05-09T21:15:31.110Z,89.30
2023-05-09T21:18:00.586Z,89.40
2023-05-09T21:20:29.761Z,90.00
2023-05-09T21:22:58.997Z,89.70
2023-05-09T21:25:28.071Z,90.00
2023-05-09T21:27:57.580Z,90.00
2023-05-09T21:30:27.033Z,90.00
2023-05-09T21:32:56.186Z,90.00
2023-05-09T21:35:25.376Z,90.00
2023-05-09T21:37:54.446Z,89.80
2023-05-09T21:40:23.629Z,90.10
2023-05-09T21:42:52.782Z,90.20
2023-05-09T21:45:21.995Z,90.30
2023-05-09T21:47:51.215Z,90.30
2023-05-09T21:50:20.510Z,90.70
2023-05-09T21:52:49.636Z,90.90
2023-05-09T21:55:18.768Z,91.00
2023-05-09T21:57:47.794Z,91.00
2023-05-09T22:00:18.040Z,90.90
2023-05-09T22:02:48.198Z,90.90
2023-05-09T22:05:17.232Z,91.10
2023-05-09T22:07:46.369Z,91.10
2023-05-09T22:10:15.660Z,91.00
2023-05-09T22:12:45.442Z,91.10
2023-05-09T22:15:14.448Z,91.10
2023-05-09T22:17:43.501Z,91.10
2023-05-09T22:20:13.216Z,91.20
2023-05-09T22:22:43.414Z,91.10
2023-05-09T22:25:12.549Z,91.40
2023-05-09T22:27:41.867Z,91.40
2023-05-09T22:30:13.711Z,91.30
2023-05-09T22:32:43.001Z,91.40
2023-05-09T22:35:12.515Z,91.60
2023-05-09T22:37:41.596Z,91.50
2023-05-09T22:40:11.428Z,91.60
2023-05-09T22:42:40.412Z,91.40
2023-05-09T22:45:10.011Z,91.70
2023-05-09T22:47:39.416Z,91.60
2023-05-09T22:50:09.482Z,91.70
2023-05-09T22:52:38.488Z,91.70
2023-05-09T22:55:08.036Z,91.70
2023-05-09T22:57:37.183Z,91.60
2023-05-09T23:00:07.248Z,91.50
2023-05-09T23:02:36.438Z,91.50
2023-05-09T23:05:05.718Z,91.50
2023-05-09T23:07:34.941Z,91.50
2023-05-09T23:10:04.784Z,91.50
2023-05-09T23:12:33.802Z,91.50
2023-05-09T23:15:02.770Z,91.60
2023-05-09T23:17:31.920Z,91.50
2023-05-09T23:20:01.913Z,91.40
2023-05-09T23:22:31.296Z,91.40
2023-05-09T23:25:01.984Z,91.40
2023-05-09T23:27:32.410Z,91.40
2023-05-09T23:30:01.431Z,91.40
2023-05-09T23:32:30.639Z,91.30
2023-05-09T23:34:59.608Z,91.30
2023-05-09T23:37:28.583Z,91.40
2023-05-09T23:39:57.524Z,91.20
2023-05-09T23:42:26.511Z,91.30
2023-05-09T23:44:55.587Z,91.30
2023-05-09T23:47:24.581Z,91.40
2023-05-09T23:49:53.607Z,91.30
2023-05-09T23:52:22.620Z,91.20
2023-05-09T23:54:51.745Z,91.30
2023-05-09T23:57:21.251Z,91.20
2023-05-09T23:59:50.191Z,91.10
